RJOP(METAR)
06/28 22:00
METAR RJOP 281300Z 17007KT 9999 FEW025 SCT100 23/21 Q1013 RMK 1CU025
3AC100 A2993=
戻る
トップページへ戻る
IMOC Co,.Ltd.